sensor_id;sensor_type;location;lat;lon;timestamp;P1;durP1;ratioP1;P2;durP2;ratioP2
53203;SDS011;39086;54.424;18.456;2022-12-07T00:00:31;41.75;;;17.55;;
53203;SDS011;39086;54.424;18.456;2022-12-07T00:01:34;37.50;;;17.70;;
53203;SDS011;39086;54.424;18.456;2022-12-07T00:02:46;35.70;;;16.77;;
53203;SDS011;39086;54.424;18.456;2022-12-07T00:03:49;31.83;;;16.73;;
53203;SDS011;39086;54.424;18.456;2022-12-07T00:04:53;38.85;;;18.38;;
53203;SDS011;39086;54.424;18.456;2022-12-07T00:05:56;37.45;;;18.35;;
53203;SDS011;39086;54.424;18.456;2022-12-07T00:07:00;33.35;;;17.58;;
53203;SDS011;39086;54.424;18.456;2022-12-07T00:08:10;37.53;;;17.63;;
53203;SDS011;39086;54.424;18.456;2022-12-07T00:09:14;36.75;;;16.73;;
53203;SDS011;39086;54.424;18.456;2022-12-07T00:10:17;37.30;;;16.88;;
53203;SDS011;39086;54.424;18.456;2022-12-07T00:11:22;36.55;;;16.40;;
53203;SDS011;39086;54.424;18.456;2022-12-07T00:12:24;35.08;;;16.88;;
53203;SDS011;39086;54.424;18.456;2022-12-07T00:13:34;35.30;;;16.05;;
53203;SDS011;39086;54.424;18.456;2022-12-07T00:14:37;34.50;;;16.20;;
53203;SDS011;39086;54.424;18.456;2022-12-07T00:15:47;33.55;;;15.57;;
53203;SDS011;39086;54.424;18.456;2022-12-07T00:16:50;38.40;;;16.25;;
53203;SDS011;39086;54.424;18.456;2022-12-07T00:17:54;41.42;;;17.58;;
53203;SDS011;39086;54.424;18.456;2022-12-07T00:18:56;34.30;;;15.90;;
53203;SDS011;39086;54.424;18.456;2022-12-07T00:20:00;39.42;;;16.05;;
53203;SDS011;39086;54.424;18.456;2022-12-07T00:21:10;34.63;;;15.45;;
53203;SDS011;39086;54.424;18.456;2022-12-07T00:22:14;35.92;;;16.13;;
53203;SDS011;39086;54.424;18.456;2022-12-07T00:23:16;34.85;;;15.57;;
53203;SDS011;39086;54.424;18.456;2022-12-07T00:24:20;33.72;;;15.73;;
53203;SDS011;39086;54.424;18.456;2022-12-07T00:25:30;31.85;;;15.32;;
53203;SDS011;39086;54.424;18.456;2022-12-07T00:26:41;31.52;;;15.57;;
53203;SDS011;39086;54.424;18.456;2022-12-07T00:27:45;32.38;;;15.20;;
53203;SDS011;39086;54.424;18.456;2022-12-07T00:28:48;30.58;;;14.82;;
53203;SDS011;39086;54.424;18.456;2022-12-07T00:29:51;33.38;;;16.15;;
53203;SDS011;39086;54.424;18.456;2022-12-07T00:30:59;34.13;;;15.68;;
53203;SDS011;39086;54.424;18.456;2022-12-07T00:32:16;31.48;;;15.27;;
53203;SDS011;39086;54.424;18.456;2022-12-07T00:33:20;39.83;;;15.93;;
53203;SDS011;39086;54.424;18.456;2022-12-07T00:34:22;32.28;;;15.68;;
53203;SDS011;39086;54.424;18.456;2022-12-07T00:35:25;38.20;;;16.48;;
53203;SDS011;39086;54.424;18.456;2022-12-07T00:36:28;34.47;;;16.17;;
53203;SDS011;39086;54.424;18.456;2022-12-07T00:37:38;33.15;;;15.38;;
53203;SDS011;39086;54.424;18.456;2022-12-07T00:38:47;33.97;;;15.93;;
53203;SDS011;39086;54.424;18.456;2022-12-07T00:39:50;28.70;;;15.02;;
53203;SDS011;39086;54.424;18.456;2022-12-07T00:40:54;36.85;;;15.88;;
53203;SDS011;39086;54.424;18.456;2022-12-07T00:41:58;33.63;;;15.23;;
53203;SDS011;39086;54.424;18.456;2022-12-07T00:43:01;33.85;;;15.80;;
53203;SDS011;39086;54.424;18.456;2022-12-07T00:44:11;37.53;;;15.65;;
53203;SDS011;39086;54.424;18.456;2022-12-07T00:45:14;35.55;;;15.15;;
53203;SDS011;39086;54.424;18.456;2022-12-07T00:46:23;34.55;;;14.95;;
53203;SDS011;39086;54.424;18.456;2022-12-07T00:47:26;34.80;;;15.77;;
53203;SDS011;39086;54.424;18.456;2022-12-07T00:48:30;33.20;;;15.82;;
53203;SDS011;39086;54.424;18.456;2022-12-07T00:49:39;33.13;;;14.13;;
53203;SDS011;39086;54.424;18.456;2022-12-07T00:50:42;31.13;;;13.95;;
53203;SDS011;39086;54.424;18.456;2022-12-07T00:51:45;36.28;;;15.20;;
53203;SDS011;39086;54.424;18.456;2022-12-07T00:52:50;34.55;;;14.75;;
53203;SDS011;39086;54.424;18.456;2022-12-07T00:53:53;29.13;;;14.30;;
53203;SDS011;39086;54.424;18.456;2022-12-07T00:55:10;32.65;;;14.77;;
53203;SDS011;39086;54.424;18.456;2022-12-07T00:56:14;32.47;;;14.48;;
53203;SDS011;39086;54.424;18.456;2022-12-07T00:57:18;29.98;;;14.93;;
53203;SDS011;39086;54.424;18.456;2022-12-07T00:58:22;26.33;;;14.02;;
53203;SDS011;39086;54.424;18.456;2022-12-07T00:59:31;29.13;;;13.55;;
53203;SDS011;39086;54.424;18.456;2022-12-07T01:00:35;33.08;;;14.93;;
53203;SDS011;39086;54.424;18.456;2022-12-07T01:01:37;33.75;;;14.70;;
53203;SDS011;39086;54.424;18.456;2022-12-07T01:02:41;34.15;;;14.15;;
53203;SDS011;39086;54.424;18.456;2022-12-07T01:03:43;34.35;;;14.93;;
53203;SDS011;39086;54.424;18.456;2022-12-07T01:04:53;37.33;;;14.90;;
53203;SDS011;39086;54.424;18.456;2022-12-07T01:05:56;32.88;;;14.23;;
53203;SDS011;39086;54.424;18.456;2022-12-07T01:06:59;30.25;;;14.25;;
53203;SDS011;39086;54.424;18.456;2022-12-07T01:08:03;30.90;;;13.20;;
53203;SDS011;39086;54.424;18.456;2022-12-07T01:09:06;27.85;;;13.00;;
53203;SDS011;39086;54.424;18.456;2022-12-07T01:10:16;31.10;;;13.77;;
53203;SDS011;39086;54.424;18.456;2022-12-07T01:11:19;29.80;;;13.85;;
53203;SDS011;39086;54.424;18.456;2022-12-07T01:12:24;33.95;;;14.20;;
53203;SDS011;39086;54.424;18.456;2022-12-07T01:13:27;28.13;;;13.48;;
53203;SDS011;39086;54.424;18.456;2022-12-07T01:14:31;30.30;;;14.05;;
53203;SDS011;39086;54.424;18.456;2022-12-07T01:15:40;34.67;;;14.48;;
53203;SDS011;39086;54.424;18.456;2022-12-07T01:16:44;29.67;;;13.80;;
53203;SDS011;39086;54.424;18.456;2022-12-07T01:17:46;31.40;;;14.60;;
53203;SDS011;39086;54.424;18.456;2022-12-07T01:18:51;35.65;;;14.15;;
53203;SDS011;39086;54.424;18.456;2022-12-07T01:19:54;31.55;;;14.30;;
53203;SDS011;39086;54.424;18.456;2022-12-07T01:21:05;34.15;;;14.13;;
53203;SDS011;39086;54.424;18.456;2022-12-07T01:22:08;31.70;;;12.93;;
53203;SDS011;39086;54.424;18.456;2022-12-07T01:23:11;34.10;;;14.15;;
53203;SDS011;39086;54.424;18.456;2022-12-07T01:24:14;30.20;;;13.77;;
53203;SDS011;39086;54.424;18.456;2022-12-07T01:25:17;34.00;;;14.30;;
53203;SDS011;39086;54.424;18.456;2022-12-07T01:26:26;34.33;;;14.75;;
53203;SDS011;39086;54.424;18.456;2022-12-07T01:27:31;33.38;;;14.07;;
53203;SDS011;39086;54.424;18.456;2022-12-07T01:28:40;35.10;;;13.60;;
53203;SDS011;39086;54.424;18.456;2022-12-07T01:29:44;28.35;;;13.40;;
53203;SDS011;39086;54.424;18.456;2022-12-07T01:30:54;30.60;;;13.32;;
53203;SDS011;39086;54.424;18.456;2022-12-07T01:31:57;28.70;;;13.07;;
53203;SDS011;39086;54.424;18.456;2022-12-07T01:33:14;30.33;;;13.50;;
53203;SDS011;39086;54.424;18.456;2022-12-07T01:34:17;31.35;;;13.20;;
53203;SDS011;39086;54.424;18.456;2022-12-07T01:35:22;34.25;;;14.00;;
53203;SDS011;39086;54.424;18.456;2022-12-07T01:36:25;31.75;;;14.48;;
53203;SDS011;39086;54.424;18.456;2022-12-07T01:37:33;26.38;;;12.85;;
53203;SDS011;39086;54.424;18.456;2022-12-07T01:38:42;30.73;;;13.30;;
53203;SDS011;39086;54.424;18.456;2022-12-07T01:39:47;35.92;;;13.75;;
53203;SDS011;39086;54.424;18.456;2022-12-07T01:40:54;29.90;;;13.05;;
53203;SDS011;39086;54.424;18.456;2022-12-07T01:41:57;34.58;;;13.75;;
53203;SDS011;39086;54.424;18.456;2022-12-07T01:43:01;29.90;;;13.55;;
53203;SDS011;39086;54.424;18.456;2022-12-07T01:44:13;33.08;;;14.55;;
53203;SDS011;39086;54.424;18.456;2022-12-07T01:46:47;32.53;;;13.13;;
53203;SDS011;39086;54.424;18.456;2022-12-07T01:47:51;35.67;;;13.32;;
53203;SDS011;39086;54.424;18.456;2022-12-07T01:48:54;30.10;;;14.02;;
53203;SDS011;39086;54.424;18.456;2022-12-07T01:50:04;37.35;;;13.77;;
53203;SDS011;39086;54.424;18.456;2022-12-07T01:51:13;33.35;;;13.50;;
53203;SDS011;39086;54.424;18.456;2022-12-07T01:52:17;33.08;;;13.43;;
53203;SDS011;39086;54.424;18.456;2022-12-07T01:53:21;33.88;;;14.43;;
53203;SDS011;39086;54.424;18.456;2022-12-07T01:54:26;32.80;;;14.82;;
53203;SDS011;39086;54.424;18.456;2022-12-07T01:55:37;34.95;;;13.98;;
53203;SDS011;39086;54.424;18.456;2022-12-07T01:56:42;37.65;;;14.68;;
53203;SDS011;39086;54.424;18.456;2022-12-07T01:57:47;35.33;;;15.98;;
53203;SDS011;39086;54.424;18.456;2022-12-07T01:58:59;35.53;;;14.98;;
53203;SDS011;39086;54.424;18.456;2022-12-07T02:00:15;31.52;;;13.25;;
53203;SDS011;39086;54.424;18.456;2022-12-07T02:01:25;38.13;;;14.07;;
53203;SDS011;39086;54.424;18.456;2022-12-07T02:02:28;38.10;;;15.00;;
53203;SDS011;39086;54.424;18.456;2022-12-07T02:03:34;33.75;;;14.35;;
53203;SDS011;39086;54.424;18.456;2022-12-07T02:04:38;36.53;;;14.90;;
53203;SDS011;39086;54.424;18.456;2022-12-07T02:05:42;33.25;;;13.75;;
53203;SDS011;39086;54.424;18.456;2022-12-07T02:06:51;34.15;;;14.00;;
53203;SDS011;39086;54.424;18.456;2022-12-07T02:07:55;35.50;;;14.43;;
53203;SDS011;39086;54.424;18.456;2022-12-07T02:08:59;35.60;;;14.25;;
53203;SDS011;39086;54.424;18.456;2022-12-07T02:10:12;34.25;;;13.68;;
53203;SDS011;39086;54.424;18.456;2022-12-07T02:11:14;37.45;;;14.25;;
53203;SDS011;39086;54.424;18.456;2022-12-07T02:12:24;38.80;;;13.88;;
53203;SDS011;39086;54.424;18.456;2022-12-07T02:13:27;34.08;;;13.43;;
53203;SDS011;39086;54.424;18.456;2022-12-07T02:14:33;35.53;;;14.15;;
53203;SDS011;39086;54.424;18.456;2022-12-07T02:15:41;32.85;;;12.75;;
53203;SDS011;39086;54.424;18.456;2022-12-07T02:16:51;33.10;;;13.32;;
53203;SDS011;39086;54.424;18.456;2022-12-07T02:18:05;34.50;;;12.75;;
53203;SDS011;39086;54.424;18.456;2022-12-07T02:19:16;37.15;;;12.43;;
53203;SDS011;39086;54.424;18.456;2022-12-07T02:20:27;36.10;;;12.90;;
53203;SDS011;39086;54.424;18.456;2022-12-07T02:21:34;32.10;;;13.27;;
53203;SDS011;39086;54.424;18.456;2022-12-07T02:24:20;29.30;;;12.23;;
53203;SDS011;39086;54.424;18.456;2022-12-07T02:25:32;32.30;;;11.35;;
53203;SDS011;39086;54.424;18.456;2022-12-07T02:26:44;32.08;;;12.07;;
53203;SDS011;39086;54.424;18.456;2022-12-07T02:27:59;33.10;;;11.50;;
53203;SDS011;39086;54.424;18.456;2022-12-07T02:29:19;27.63;;;10.95;;
53203;SDS011;39086;54.424;18.456;2022-12-07T02:30:23;34.70;;;11.65;;
53203;SDS011;39086;54.424;18.456;2022-12-07T02:31:28;33.45;;;11.80;;
53203;SDS011;39086;54.424;18.456;2022-12-07T02:32:38;25.58;;;11.13;;
53203;SDS011;39086;54.424;18.456;2022-12-07T02:33:44;27.15;;;10.75;;
53203;SDS011;39086;54.424;18.456;2022-12-07T02:34:55;30.58;;;11.48;;
53203;SDS011;39086;54.424;18.456;2022-12-07T02:36:01;34.83;;;12.38;;
53203;SDS011;39086;54.424;18.456;2022-12-07T02:37:07;37.22;;;11.55;;
53203;SDS011;39086;54.424;18.456;2022-12-07T02:38:14;33.47;;;10.70;;
53203;SDS011;39086;54.424;18.456;2022-12-07T02:39:19;32.63;;;11.65;;
53203;SDS011;39086;54.424;18.456;2022-12-07T02:40:31;31.80;;;12.32;;
53203;SDS011;39086;54.424;18.456;2022-12-07T02:41:36;41.85;;;11.48;;
53203;SDS011;39086;54.424;18.456;2022-12-07T02:42:40;36.15;;;11.82;;
53203;SDS011;39086;54.424;18.456;2022-12-07T02:43:46;36.83;;;12.45;;
53203;SDS011;39086;54.424;18.456;2022-12-07T02:44:50;40.35;;;12.73;;
53203;SDS011;39086;54.424;18.456;2022-12-07T02:46:01;31.23;;;10.98;;
53203;SDS011;39086;54.424;18.456;2022-12-07T02:47:07;30.00;;;10.82;;
53203;SDS011;39086;54.424;18.456;2022-12-07T02:48:17;35.63;;;11.88;;
53203;SDS011;39086;54.424;18.456;2022-12-07T02:49:22;31.50;;;11.35;;
53203;SDS011;39086;54.424;18.456;2022-12-07T02:50:31;26.92;;;11.60;;
53203;SDS011;39086;54.424;18.456;2022-12-07T02:51:38;38.53;;;12.05;;
53203;SDS011;39086;54.424;18.456;2022-12-07T02:52:40;30.95;;;11.02;;
53203;SDS011;39086;54.424;18.456;2022-12-07T02:53:44;34.95;;;11.25;;
53203;SDS011;39086;54.424;18.456;2022-12-07T02:54:47;31.83;;;10.48;;
53203;SDS011;39086;54.424;18.456;2022-12-07T02:55:57;33.22;;;10.82;;
53203;SDS011;39086;54.424;18.456;2022-12-07T02:57:02;27.98;;;11.23;;
53203;SDS011;39086;54.424;18.456;2022-12-07T02:58:19;33.22;;;10.70;;
53203;SDS011;39086;54.424;18.456;2022-12-07T02:59:40;30.20;;;10.57;;
53203;SDS011;39086;54.424;18.456;2022-12-07T03:00:54;36.40;;;11.23;;
53203;SDS011;39086;54.424;18.456;2022-12-07T03:02:07;32.65;;;10.35;;
53203;SDS011;39086;54.424;18.456;2022-12-07T03:03:20;30.17;;;10.60;;
53203;SDS011;39086;54.424;18.456;2022-12-07T03:04:28;28.50;;;11.55;;
53203;SDS011;39086;54.424;18.456;2022-12-07T03:06:58;24.85;;;9.70;;
53203;SDS011;39086;54.424;18.456;2022-12-07T03:08:11;21.65;;;9.98;;
53203;SDS011;39086;54.424;18.456;2022-12-07T03:09:18;21.13;;;9.88;;
53203;SDS011;39086;54.424;18.456;2022-12-07T03:10:24;22.98;;;10.07;;
53203;SDS011;39086;54.424;18.456;2022-12-07T03:11:32;27.27;;;10.18;;
53203;SDS011;39086;54.424;18.456;2022-12-07T03:12:37;20.25;;;8.98;;
53203;SDS011;39086;54.424;18.456;2022-12-07T03:13:54;21.30;;;9.70;;
53203;SDS011;39086;54.424;18.456;2022-12-07T03:14:59;22.23;;;10.05;;
53203;SDS011;39086;54.424;18.456;2022-12-07T03:16:07;21.25;;;9.35;;
53203;SDS011;39086;54.424;18.456;2022-12-07T03:17:12;20.33;;;9.23;;
53203;SDS011;39086;54.424;18.456;2022-12-07T03:18:18;20.02;;;9.57;;
53203;SDS011;39086;54.424;18.456;2022-12-07T03:19:27;25.05;;;10.07;;
53203;SDS011;39086;54.424;18.456;2022-12-07T03:20:31;18.10;;;8.98;;
53203;SDS011;39086;54.424;18.456;2022-12-07T03:21:36;21.85;;;9.15;;
53203;SDS011;39086;54.424;18.456;2022-12-07T03:22:40;22.10;;;8.57;;
53203;SDS011;39086;54.424;18.456;2022-12-07T03:23:50;19.70;;;9.60;;
53203;SDS011;39086;54.424;18.456;2022-12-07T03:25:03;17.92;;;8.65;;
53203;SDS011;39086;54.424;18.456;2022-12-07T03:26:08;20.00;;;8.65;;
53203;SDS011;39086;54.424;18.456;2022-12-07T03:27:13;21.40;;;9.00;;
53203;SDS011;39086;54.424;18.456;2022-12-07T03:28:18;16.80;;;8.23;;
53203;SDS011;39086;54.424;18.456;2022-12-07T03:29:25;20.00;;;8.45;;
53203;SDS011;39086;54.424;18.456;2022-12-07T03:30:36;15.18;;;7.72;;
53203;SDS011;39086;54.424;18.456;2022-12-07T03:31:44;17.17;;;7.63;;
53203;SDS011;39086;54.424;18.456;2022-12-07T03:32:53;20.95;;;8.45;;
53203;SDS011;39086;54.424;18.456;2022-12-07T03:33:59;19.33;;;8.52;;
53203;SDS011;39086;54.424;18.456;2022-12-07T03:35:05;22.25;;;8.35;;
53203;SDS011;39086;54.424;18.456;2022-12-07T03:36:17;17.02;;;8.35;;
53203;SDS011;39086;54.424;18.456;2022-12-07T03:37:23;19.40;;;8.23;;
53203;SDS011;39086;54.424;18.456;2022-12-07T03:38:30;17.65;;;8.32;;
53203;SDS011;39086;54.424;18.456;2022-12-07T03:39:36;18.30;;;9.07;;
53203;SDS011;39086;54.424;18.456;2022-12-07T03:40:54;21.92;;;8.23;;
53203;SDS011;39086;54.424;18.456;2022-12-07T03:42:01;23.25;;;8.63;;
53203;SDS011;39086;54.424;18.456;2022-12-07T03:43:05;22.55;;;8.70;;
53203;SDS011;39086;54.424;18.456;2022-12-07T03:44:09;19.40;;;8.23;;
53203;SDS011;39086;54.424;18.456;2022-12-07T03:45:12;18.98;;;8.48;;
53203;SDS011;39086;54.424;18.456;2022-12-07T03:46:25;22.55;;;8.93;;
53203;SDS011;39086;54.424;18.456;2022-12-07T03:47:33;20.33;;;8.07;;
53203;SDS011;39086;54.424;18.456;2022-12-07T03:48:37;16.92;;;8.40;;
53203;SDS011;39086;54.424;18.456;2022-12-07T03:49:45;19.13;;;9.35;;
53203;SDS011;39086;54.424;18.456;2022-12-07T03:50:48;22.55;;;8.95;;
53203;SDS011;39086;54.424;18.456;2022-12-07T03:52:01;22.40;;;8.15;;
53203;SDS011;39086;54.424;18.456;2022-12-07T03:53:14;19.60;;;8.57;;
53203;SDS011;39086;54.424;18.456;2022-12-07T03:54:19;17.20;;;8.93;;
53203;SDS011;39086;54.424;18.456;2022-12-07T03:55:24;21.13;;;9.07;;
53203;SDS011;39086;54.424;18.456;2022-12-07T03:56:28;17.83;;;8.55;;
53203;SDS011;39086;54.424;18.456;2022-12-07T03:57:32;18.92;;;8.57;;
53203;SDS011;39086;54.424;18.456;2022-12-07T03:58:41;18.45;;;8.95;;
53203;SDS011;39086;54.424;18.456;2022-12-07T03:59:58;19.33;;;8.25;;
53203;SDS011;39086;54.424;18.456;2022-12-07T04:01:02;15.48;;;8.10;;
53203;SDS011;39086;54.424;18.456;2022-12-07T04:02:06;15.57;;;8.48;;
53203;SDS011;39086;54.424;18.456;2022-12-07T04:03:17;14.52;;;7.82;;
53203;SDS011;39086;54.424;18.456;2022-12-07T04:04:27;16.67;;;8.05;;
53203;SDS011;39086;54.424;18.456;2022-12-07T04:05:31;15.15;;;7.93;;
53203;SDS011;39086;54.424;18.456;2022-12-07T04:06:33;12.93;;;7.30;;
53203;SDS011;39086;54.424;18.456;2022-12-07T04:07:37;12.70;;;7.82;;
53203;SDS011;39086;54.424;18.456;2022-12-07T04:08:46;14.65;;;7.93;;
53203;SDS011;39086;54.424;18.456;2022-12-07T04:09:50;17.63;;;7.93;;
53203;SDS011;39086;54.424;18.456;2022-12-07T04:10:52;14.35;;;7.68;;
53203;SDS011;39086;54.424;18.456;2022-12-07T04:11:56;15.13;;;7.47;;
53203;SDS011;39086;54.424;18.456;2022-12-07T04:12:58;15.75;;;7.38;;
53203;SDS011;39086;54.424;18.456;2022-12-07T04:14:08;12.57;;;7.50;;
53203;SDS011;39086;54.424;18.456;2022-12-07T04:15:23;14.40;;;7.93;;
53203;SDS011;39086;54.424;18.456;2022-12-07T04:16:26;13.00;;;7.03;;
53203;SDS011;39086;54.424;18.456;2022-12-07T04:17:29;16.20;;;8.15;;
53203;SDS011;39086;54.424;18.456;2022-12-07T04:18:40;11.65;;;7.28;;
53203;SDS011;39086;54.424;18.456;2022-12-07T04:19:43;12.32;;;7.28;;
53203;SDS011;39086;54.424;18.456;2022-12-07T04:20:47;13.57;;;7.15;;
53203;SDS011;39086;54.424;18.456;2022-12-07T04:21:50;11.13;;;7.43;;
53203;SDS011;39086;54.424;18.456;2022-12-07T04:22:53;13.68;;;7.53;;
53203;SDS011;39086;54.424;18.456;2022-12-07T04:24:02;13.10;;;7.60;;
53203;SDS011;39086;54.424;18.456;2022-12-07T04:25:06;12.68;;;7.30;;
53203;SDS011;39086;54.424;18.456;2022-12-07T04:26:08;12.63;;;7.70;;
53203;SDS011;39086;54.424;18.456;2022-12-07T04:27:12;13.38;;;7.72;;
53203;SDS011;39086;54.424;18.456;2022-12-07T04:28:15;15.60;;;7.25;;
53203;SDS011;39086;54.424;18.456;2022-12-07T04:29:25;12.75;;;6.90;;
53203;SDS011;39086;54.424;18.456;2022-12-07T04:30:28;17.33;;;6.97;;
53203;SDS011;39086;54.424;18.456;2022-12-07T04:31:31;12.95;;;7.43;;
53203;SDS011;39086;54.424;18.456;2022-12-07T04:32:34;14.90;;;8.38;;
53203;SDS011;39086;54.424;18.456;2022-12-07T04:33:37;11.57;;;7.43;;
53203;SDS011;39086;54.424;18.456;2022-12-07T04:34:48;11.60;;;6.97;;
53203;SDS011;39086;54.424;18.456;2022-12-07T04:35:56;10.77;;;6.85;;
53203;SDS011;39086;54.424;18.456;2022-12-07T04:36:58;11.35;;;6.65;;
53203;SDS011;39086;54.424;18.456;2022-12-07T04:38:02;11.75;;;6.07;;
53203;SDS011;39086;54.424;18.456;2022-12-07T04:39:14;9.18;;;5.88;;
53203;SDS011;39086;54.424;18.456;2022-12-07T04:40:20;9.40;;;6.15;;
53203;SDS011;39086;54.424;18.456;2022-12-07T04:41:22;8.35;;;5.65;;
53203;SDS011;39086;54.424;18.456;2022-12-07T04:42:29;8.68;;;5.72;;
53203;SDS011;39086;54.424;18.456;2022-12-07T04:43:32;8.25;;;5.78;;
53203;SDS011;39086;54.424;18.456;2022-12-07T04:44:41;8.15;;;5.38;;
53203;SDS011;39086;54.424;18.456;2022-12-07T04:45:50;8.38;;;5.60;;
53203;SDS011;39086;54.424;18.456;2022-12-07T04:46:54;7.70;;;5.70;;
53203;SDS011;39086;54.424;18.456;2022-12-07T04:47:57;8.48;;;5.57;;
53203;SDS011;39086;54.424;18.456;2022-12-07T04:49:00;6.38;;;5.20;;
53203;SDS011;39086;54.424;18.456;2022-12-07T04:50:04;7.65;;;5.13;;
53203;SDS011;39086;54.424;18.456;2022-12-07T04:51:14;6.30;;;4.85;;
53203;SDS011;39086;54.424;18.456;2022-12-07T04:52:17;5.10;;;4.47;;
53203;SDS011;39086;54.424;18.456;2022-12-07T04:53:21;7.03;;;5.18;;
53203;SDS011;39086;54.424;18.456;2022-12-07T04:54:23;7.18;;;4.75;;
53203;SDS011;39086;54.424;18.456;2022-12-07T04:55:27;5.82;;;4.80;;
53203;SDS011;39086;54.424;18.456;2022-12-07T04:56:36;5.30;;;4.72;;
53203;SDS011;39086;54.424;18.456;2022-12-07T04:57:40;5.05;;;4.30;;
53203;SDS011;39086;54.424;18.456;2022-12-07T04:58:42;6.05;;;4.68;;
53203;SDS011;39086;54.424;18.456;2022-12-07T04:59:59;5.95;;;4.47;;
53203;SDS011;39086;54.424;18.456;2022-12-07T05:01:03;5.35;;;4.40;;
53203;SDS011;39086;54.424;18.456;2022-12-07T05:02:14;5.20;;;4.30;;
53203;SDS011;39086;54.424;18.456;2022-12-07T05:03:18;5.63;;;4.22;;
53203;SDS011;39086;54.424;18.456;2022-12-07T05:04:20;4.70;;;4.07;;
53203;SDS011;39086;54.424;18.456;2022-12-07T05:05:25;5.55;;;4.30;;
53203;SDS011;39086;54.424;18.456;2022-12-07T05:06:27;4.18;;;3.75;;
53203;SDS011;39086;54.424;18.456;2022-12-07T05:07:37;6.75;;;4.55;;
53203;SDS011;39086;54.424;18.456;2022-12-07T05:08:40;4.53;;;4.07;;
53203;SDS011;39086;54.424;18.456;2022-12-07T05:09:44;6.97;;;4.07;;
53203;SDS011;39086;54.424;18.456;2022-12-07T05:10:48;4.60;;;4.00;;
53203;SDS011;39086;54.424;18.456;2022-12-07T05:11:51;5.65;;;4.35;;
53203;SDS011;39086;54.424;18.456;2022-12-07T05:13:00;4.40;;;3.85;;
53203;SDS011;39086;54.424;18.456;2022-12-07T05:14:04;6.20;;;4.72;;
53203;SDS011;39086;54.424;18.456;2022-12-07T05:15:07;6.82;;;5.50;;
53203;SDS011;39086;54.424;18.456;2022-12-07T05:16:11;5.65;;;5.07;;
53203;SDS011;39086;54.424;18.456;2022-12-07T05:17:13;7.32;;;6.38;;
53203;SDS011;39086;54.424;18.456;2022-12-07T05:18:24;6.32;;;5.28;;
53203;SDS011;39086;54.424;18.456;2022-12-07T05:19:33;5.93;;;5.20;;
53203;SDS011;39086;54.424;18.456;2022-12-07T05:20:38;5.65;;;5.03;;
53203;SDS011;39086;54.424;18.456;2022-12-07T05:21:43;5.10;;;4.60;;
53203;SDS011;39086;54.424;18.456;2022-12-07T05:22:46;4.97;;;4.47;;
53203;SDS011;39086;54.424;18.456;2022-12-07T05:23:49;6.35;;;4.60;;
53203;SDS011;39086;54.424;18.456;2022-12-07T05:24:59;5.03;;;4.30;;
53203;SDS011;39086;54.424;18.456;2022-12-07T05:26:02;6.43;;;4.90;;
53203;SDS011;39086;54.424;18.456;2022-12-07T05:27:05;5.18;;;4.68;;
53203;SDS011;39086;54.424;18.456;2022-12-07T05:28:15;4.38;;;3.97;;
53203;SDS011;39086;54.424;18.456;2022-12-07T05:29:24;5.38;;;4.57;;
53203;SDS011;39086;54.424;18.456;2022-12-07T05:30:28;4.72;;;4.22;;
53203;SDS011;39086;54.424;18.456;2022-12-07T05:31:30;4.97;;;4.20;;
53203;SDS011;39086;54.424;18.456;2022-12-07T05:32:35;4.78;;;4.18;;
53203;SDS011;39086;54.424;18.456;2022-12-07T05:33:38;5.32;;;4.22;;
53203;SDS011;39086;54.424;18.456;2022-12-07T05:34:48;4.80;;;4.07;;
53203;SDS011;39086;54.424;18.456;2022-12-07T05:35:52;4.53;;;3.88;;
53203;SDS011;39086;54.424;18.456;2022-12-07T05:36:56;5.10;;;4.60;;
53203;SDS011;39086;54.424;18.456;2022-12-07T05:37:59;5.57;;;3.92;;
53203;SDS011;39086;54.424;18.456;2022-12-07T05:39:02;6.40;;;5.00;;
53203;SDS011;39086;54.424;18.456;2022-12-07T05:40:11;5.50;;;4.95;;
53203;SDS011;39086;54.424;18.456;2022-12-07T05:41:15;3.65;;;3.35;;
53203;SDS011;39086;54.424;18.456;2022-12-07T05:42:37;4.82;;;3.60;;
53203;SDS011;39086;54.424;18.456;2022-12-07T05:43:40;4.93;;;4.43;;
53203;SDS011;39086;54.424;18.456;2022-12-07T05:44:49;5.35;;;4.20;;
53203;SDS011;39086;54.424;18.456;2022-12-07T05:45:53;5.63;;;4.63;;
53203;SDS011;39086;54.424;18.456;2022-12-07T05:46:55;5.90;;;5.30;;
53203;SDS011;39086;54.424;18.456;2022-12-07T05:47:59;5.32;;;4.68;;
53203;SDS011;39086;54.424;18.456;2022-12-07T05:49:02;4.97;;;4.50;;
53203;SDS011;39086;54.424;18.456;2022-12-07T05:50:11;5.18;;;4.68;;
53203;SDS011;39086;54.424;18.456;2022-12-07T05:51:16;5.03;;;4.50;;
53203;SDS011;39086;54.424;18.456;2022-12-07T05:52:18;5.47;;;4.38;;
53203;SDS011;39086;54.424;18.456;2022-12-07T05:53:22;7.85;;;5.55;;
53203;SDS011;39086;54.424;18.456;2022-12-07T05:54:24;6.90;;;5.85;;
53203;SDS011;39086;54.424;18.456;2022-12-07T05:55:34;6.57;;;5.07;;
53203;SDS011;39086;54.424;18.456;2022-12-07T05:56:38;6.97;;;5.57;;
53203;SDS011;39086;54.424;18.456;2022-12-07T05:57:40;7.32;;;5.50;;
53203;SDS011;39086;54.424;18.456;2022-12-07T05:59:04;6.25;;;4.95;;
53203;SDS011;39086;54.424;18.456;2022-12-07T06:00:39;5.72;;;5.13;;
53203;SDS011;39086;54.424;18.456;2022-12-07T06:01:52;5.45;;;4.95;;
53203;SDS011;39086;54.424;18.456;2022-12-07T06:02:56;6.07;;;4.65;;
53203;SDS011;39086;54.424;18.456;2022-12-07T06:04:01;5.22;;;4.70;;
53203;SDS011;39086;54.424;18.456;2022-12-07T06:05:04;5.43;;;4.90;;
53203;SDS011;39086;54.424;18.456;2022-12-07T06:06:15;5.18;;;4.68;;
53203;SDS011;39086;54.424;18.456;2022-12-07T06:07:24;6.22;;;5.00;;
53203;SDS011;39086;54.424;18.456;2022-12-07T06:08:28;5.90;;;4.80;;
53203;SDS011;39086;54.424;18.456;2022-12-07T06:09:30;4.22;;;3.83;;
53203;SDS011;39086;54.424;18.456;2022-12-07T06:10:34;5.40;;;4.35;;
53203;SDS011;39086;54.424;18.456;2022-12-07T06:11:43;5.43;;;4.20;;
53203;SDS011;39086;54.424;18.456;2022-12-07T06:13:04;5.30;;;4.80;;
53203;SDS011;39086;54.424;18.456;2022-12-07T06:14:07;4.72;;;3.40;;
53203;SDS011;39086;54.424;18.456;2022-12-07T06:15:10;5.05;;;4.28;;
53203;SDS011;39086;54.424;18.456;2022-12-07T06:16:14;3.75;;;3.45;;
53203;SDS011;39086;54.424;18.456;2022-12-07T06:17:23;4.15;;;3.75;;
53203;SDS011;39086;54.424;18.456;2022-12-07T06:18:27;4.38;;;3.97;;
53203;SDS011;39086;54.424;18.456;2022-12-07T06:19:29;3.42;;;3.22;;
53203;SDS011;39086;54.424;18.456;2022-12-07T06:20:33;3.13;;;2.50;;
53203;SDS011;39086;54.424;18.456;2022-12-07T06:21:37;2.65;;;2.45;;
53203;SDS011;39086;54.424;18.456;2022-12-07T06:22:47;2.45;;;2.25;;
53203;SDS011;39086;54.424;18.456;2022-12-07T06:23:51;2.40;;;2.20;;
53203;SDS011;39086;54.424;18.456;2022-12-07T06:24:53;2.78;;;2.53;;
53203;SDS011;39086;54.424;18.456;2022-12-07T06:25:57;2.70;;;2.50;;
53203;SDS011;39086;54.424;18.456;2022-12-07T06:27:06;2.72;;;2.25;;
53203;SDS011;39086;54.424;18.456;2022-12-07T06:28:16;2.33;;;2.13;;
53203;SDS011;39086;54.424;18.456;2022-12-07T06:29:19;2.78;;;2.40;;
53203;SDS011;39086;54.424;18.456;2022-12-07T06:30:23;2.55;;;2.35;;
53203;SDS011;39086;54.424;18.456;2022-12-07T06:31:25;2.45;;;2.25;;